Time;durP1;ratioP1;P1;durP2;ratioP2;P2;SDS_P1;SDS_P2;PMS_P1;PMS_P2;Temp;Humidity;BMP_temperature;BMP_pressure;BME280_temperature;BME280_humidity;BME280_pressure;Samples;Min_cycle;Max_cycle;Signal;HPM_P1;HPM_P2
2022/07/28 00:00:32;;;;;;;1.67;0.30;;;25.10;37.70;;;;;;5021237;28;20072;-49
2022/07/28 00:02:59;;;;;;;0.95;0.45;;;25.00;37.60;;;;;;5014490;28;20045;-55
2022/07/28 00:05:25;;;;;;;0.60;0.50;;;25.00;37.60;;;;;;5014165;28;20021;-53
2022/07/28 00:07:51;;;;;;;0.68;0.38;;;25.00;37.60;;;;;;5019244;28;20030;-50
2022/07/28 00:10:17;;;;;;;1.45;0.40;;;25.00;37.60;;;;;;5018727;28;20041;-52
2022/07/28 00:12:43;;;;;;;0.68;0.35;;;25.00;38.20;;;;;;5012309;28;20564;-53
2022/07/28 00:15:10;;;;;;;1.02;0.50;;;25.00;37.60;;;;;;5013508;28;20120;-51
2022/07/28 00:17:36;;;;;;;0.85;0.50;;;25.00;37.60;;;;;;5013771;28;20357;-50
2022/07/28 00:20:02;;;;;;;0.90;0.45;;;25.00;37.60;;;;;;5010133;28;20028;-50
2022/07/28 00:22:28;;;;;;;1.40;0.32;;;25.00;37.60;;;;;;5015849;28;20137;-52
2022/07/28 00:24:54;;;;;;;1.40;0.40;;;25.00;37.60;;;;;;5012835;28;20161;-53
2022/07/28 00:27:20;;;;;;;0.55;0.30;;;25.00;37.60;;;;;;5015874;28;20360;-49
2022/07/28 00:29:46;;;;;;;0.88;0.50;;;25.00;37.60;;;;;;5010128;28;20026;-50
2022/07/28 00:32:11;;;;;;;0.63;0.30;;;25.00;37.60;;;;;;5014768;28;20357;-54
2022/07/28 00:34:37;;;;;;;0.43;0.40;;;24.90;37.60;;;;;;5012977;28;20026;-51
2022/07/28 00:37:03;;;;;;;1.17;0.60;;;24.90;37.70;;;;;;5013850;28;20022;-50
2022/07/28 00:39:29;;;;;;;0.82;0.43;;;24.90;37.70;;;;;;5016751;28;20025;-54
2022/07/28 00:41:55;;;;;;;0.63;0.32;;;24.90;37.70;;;;;;5016681;28;20520;-53
2022/07/28 00:44:21;;;;;;;0.70;0.30;;;24.90;37.70;;;;;;5016263;28;20073;-52
2022/07/28 00:46:47;;;;;;;1.60;0.50;;;24.90;37.70;;;;;;5017063;28;20057;-50
2022/07/28 00:49:14;;;;;;;1.00;0.40;;;24.90;37.70;;;;;;5014262;28;20030;-52
2022/07/28 00:51:40;;;;;;;1.38;0.40;;;24.90;37.70;;;;;;5013600;28;20117;-54
2022/07/28 00:54:06;;;;;;;0.60;0.40;;;24.90;37.70;;;;;;5015217;28;20046;-52
2022/07/28 00:56:33;;;;;;;0.90;0.40;;;24.80;37.70;;;;;;5017503;28;20065;-55
2022/07/28 00:58:59;;;;;;;1.35;0.50;;;24.80;37.70;;;;;;5016450;28;20479;-54
2022/07/28 01:01:25;;;;;;;1.75;0.30;;;24.80;37.70;;;;;;5014791;28;20025;-54
2022/07/28 01:04:01;;;;;;;0.90;0.40;;;24.80;37.70;;;;;;5017575;28;20079;-54
2022/07/28 01:06:46;;;;;;;0.35;0.30;;;24.80;38.30;;;;;;5015338;28;20034;-53
2022/07/28 01:09:33;;;;;;;1.42;0.60;;;24.80;37.70;;;;;;5009543;28;20026;-53
2022/07/28 01:12:05;;;;;;;0.40;0.28;;;24.80;37.70;;;;;;5012528;28;20069;-54
2022/07/28 01:14:38;;;;;;;0.70;0.40;;;24.80;37.80;;;;;;5008300;28;20033;-54
2022/07/28 01:17:13;;;;;;;0.77;0.45;;;24.80;37.80;;;;;;5010980;28;20030;-55
2022/07/28 01:20:07;;;;;;;0.45;0.40;;;24.80;37.80;;;;;;5009441;28;20041;-53
2022/07/28 01:22:39;;;;;;;0.68;0.43;;;24.80;37.80;;;;;;4999609;28;20064;-54
2022/07/28 01:25:50;;;;;;;0.80;0.50;;;24.80;37.80;;;;;;5013377;28;20025;-55
2022/07/28 01:28:30;;;;;;;0.93;0.40;;;24.80;37.80;;;;;;4990882;28;20041;-53
2022/07/28 01:31:01;;;;;;;0.75;0.50;;;24.70;37.80;;;;;;5020777;28;20079;-50
2022/07/28 01:33:37;;;;;;;1.02;0.38;;;24.70;37.80;;;;;;5010218;28;20449;-51
2022/07/28 01:36:08;;;;;;;1.05;0.47;;;24.70;37.90;;;;;;5011719;28;20045;-53
2022/07/28 01:38:38;;;;;;;0.52;0.40;;;24.70;37.90;;;;;;5015637;28;20034;-53
2022/07/28 01:41:08;;;;;;;0.82;0.40;;;24.70;38.00;;;;;;5010751;28;20473;-50
2022/07/28 01:43:38;;;;;;;0.60;0.40;;;24.70;38.00;;;;;;5011198;28;20042;-54
2022/07/28 01:46:05;;;;;;;0.50;0.30;;;24.70;38.00;;;;;;5012404;28;20030;-51
2022/07/28 01:48:33;;;;;;;0.65;0.32;;;24.70;38.00;;;;;;5015135;28;20022;-49
2022/07/28 01:51:00;;;;;;;0.60;0.30;;;24.70;38.00;;;;;;5012672;28;20042;-51
2022/07/28 01:53:28;;;;;;;0.70;0.47;;;24.70;38.00;;;;;;5011542;28;20121;-50
2022/07/28 01:55:54;;;;;;;0.93;0.30;;;24.70;38.00;;;;;;5014845;28;20030;-52
2022/07/28 01:58:23;;;;;;;1.15;0.47;;;24.70;38.00;;;;;;5011272;28;20039;-56
2022/07/28 02:00:50;;;;;;;0.50;0.30;;;24.70;38.00;;;;;;5010261;28;20065;-52
2022/07/28 02:03:18;;;;;;;0.75;0.30;;;24.60;37.90;;;;;;5013658;28;20038;-49
2022/07/28 02:05:49;;;;;;;0.90;0.40;;;24.70;38.10;;;;;;5015125;28;20437;-55
2022/07/28 02:08:18;;;;;;;0.73;0.35;;;24.70;38.10;;;;;;5005866;28;21086;-52
2022/07/28 02:11:38;;;;;;;1.50;0.40;;;24.60;38.00;;;;;;5013317;28;20022;-52
2022/07/28 02:13:33;;;;;;;1.38;0.40;;;24.60;38.00;;;;;;5016296;28;20041;-52
2022/07/28 02:16:02;;;;;;;1.70;0.50;;;24.60;38.00;;;;;;5012502;28;20026;-55
2022/07/28 02:18:29;;;;;;;1.00;0.40;;;24.60;38.10;;;;;;5011193;28;20044;-50
2022/07/28 02:20:56;;;;;;;1.90;0.75;;;24.60;38.10;;;;;;5014832;28;20371;-53
2022/07/28 02:23:23;;;;;;;0.50;0.25;;;24.60;38.10;;;;;;5009946;28;21447;-55
2022/07/28 02:25:50;;;;;;;0.60;0.40;;;24.60;38.10;;;;;;5015567;28;20056;-52
2022/07/28 02:28:20;;;;;;;0.32;0.25;;;24.60;38.10;;;;;;5008527;28;20117;-54
2022/07/28 02:31:00;;;;;;;0.57;0.40;;;24.60;38.10;;;;;;5017241;28;20074;-50
2022/07/28 02:33:27;;;;;;;0.57;0.30;;;24.60;38.10;;;;;;5011815;28;20113;-54
2022/07/28 02:35:59;;;;;;;1.52;0.57;;;24.60;38.10;;;;;;5013940;28;20449;-52
2022/07/28 02:38:43;;;;;;;1.05;0.40;;;24.60;38.20;;;;;;5013824;28;20418;-55
2022/07/28 02:41:21;;;;;;;0.93;0.40;;;24.60;38.20;;;;;;5012202;28;20026;-53
2022/07/28 02:43:47;;;;;;;0.65;0.30;;;24.60;38.20;;;;;;5010074;28;20080;-53
2022/07/28 02:46:17;;;;;;;0.68;0.35;;;24.60;38.20;;;;;;5009625;28;20022;-53
2022/07/28 02:48:49;;;;;;;1.10;0.47;;;24.50;38.10;;;;;;5007688;28;20334;-53
2022/07/28 02:51:17;;;;;;;0.73;0.40;;;24.50;38.20;;;;;;5016143;28;20026;-55
2022/07/28 02:53:45;;;;;;;0.38;0.30;;;24.50;38.20;;;;;;5007769;28;20338;-54
2022/07/28 02:56:14;;;;;;;0.98;0.40;;;24.50;38.20;;;;;;5016213;28;20042;-49
2022/07/28 02:58:40;;;;;;;1.10;0.45;;;24.50;38.20;;;;;;5013298;28;20111;-53
2022/07/28 03:01:06;;;;;;;1.20;0.52;;;24.50;38.20;;;;;;5017097;28;20073;-52
2022/07/28 03:03:33;;;;;;;0.38;0.35;;;24.50;38.20;;;;;;5016720;28;20525;-53
2022/07/28 03:05:59;;;;;;;0.88;0.30;;;24.50;38.20;;;;;;5010202;28;21629;-53
2022/07/28 03:08:25;;;;;;;0.70;0.40;;;24.40;38.10;;;;;;5011306;28;20042;-51
2022/07/28 03:11:08;;;;;;;1.33;0.40;;;24.50;38.20;;;;;;5010894;28;20030;-56
2022/07/28 03:13:34;;;;;;;1.67;0.50;;;24.50;38.20;;;;;;5009195;28;20412;-55
2022/07/28 03:15:59;;;;;;;0.45;0.30;;;24.40;38.20;;;;;;5011386;28;20033;-53
2022/07/28 03:18:27;;;;;;;1.48;0.40;;;24.40;38.20;;;;;;5010410;28;20026;-53
2022/07/28 03:20:54;;;;;;;2.05;0.60;;;24.40;38.20;;;;;;5013061;28;20040;-53
2022/07/28 03:23:25;;;;;;;0.70;0.30;;;24.40;38.20;;;;;;5010826;28;20042;-52
2022/07/28 03:25:55;;;;;;;1.65;0.40;;;24.40;38.20;;;;;;5012104;28;20037;-54
2022/07/28 03:28:22;;;;;;;1.23;0.50;;;24.40;38.20;;;;;;5010879;28;20974;-56
2022/07/28 03:31:02;;;;;;;0.95;0.50;;;24.40;38.20;;;;;;5015023;28;20036;-52
2022/07/28 03:33:28;;;;;;;0.63;0.30;;;24.40;38.20;;;;;;5014943;28;20176;-54
2022/07/28 03:35:58;;;;;;;1.15;0.40;;;24.40;38.20;;;;;;5011888;28;20151;-55
2022/07/28 03:38:32;;;;;;;0.70;0.30;;;24.40;38.20;;;;;;5011102;28;20022;-49
2022/07/28 03:40:59;;;;;;;0.77;0.30;;;24.40;38.20;;;;;;5014474;28;20036;-49
2022/07/28 03:43:26;;;;;;;0.40;0.30;;;24.40;38.20;;;;;;5016119;28;20050;-49
2022/07/28 03:45:52;;;;;;;0.40;0.30;;;24.40;38.10;;;;;;5011916;28;20115;-55
2022/07/28 03:48:17;;;;;;;0.90;0.32;;;24.30;38.10;;;;;;5008516;28;20087;-54
2022/07/28 03:50:43;;;;;;;0.93;0.40;;;24.40;38.10;;;;;;5014173;28;20040;-53
2022/07/28 03:53:26;;;;;;;1.20;0.68;;;24.30;37.90;;;;;;5015926;28;20029;-51
2022/07/28 03:55:52;;;;;;;0.98;0.38;;;24.30;37.90;;;;;;4995441;28;20306;-54
2022/07/28 03:58:24;;;;;;;1.60;0.40;;;24.30;37.80;;;;;;4992980;28;20026;-54
2022/07/28 04:00:51;;;;;;;2.78;0.35;;;24.30;37.80;;;;;;4995769;28;20457;-55
2022/07/28 04:03:17;;;;;;;1.42;0.40;;;24.30;37.70;;;;;;4996749;28;20042;-51
2022/07/28 04:05:43;;;;;;;0.57;0.43;;;24.30;37.70;;;;;;4998215;28;20039;-55
2022/07/28 04:08:09;;;;;;;1.02;0.57;;;24.30;37.60;;;;;;4997623;28;20053;-53
2022/07/28 04:10:35;;;;;;;1.02;0.50;;;24.30;37.60;;;;;;4993964;28;20054;-49
2022/07/28 04:13:01;;;;;;;0.98;0.40;;;24.30;37.60;;;;;;4990719;28;20022;-51
2022/07/28 04:15:27;;;;;;;1.15;0.40;;;24.30;37.50;;;;;;4993087;28;20030;-53
2022/07/28 04:17:54;;;;;;;1.63;0.60;;;24.30;37.50;;;;;;4993209;28;20034;-56
2022/07/28 04:20:22;;;;;;;1.60;0.50;;;24.30;37.50;;;;;;4967385;28;20035;-55
2022/07/28 04:22:49;;;;;;;1.08;0.40;;;24.30;37.50;;;;;;4993885;28;20097;-54
2022/07/28 04:25:22;;;;;;;2.72;0.60;;;24.20;37.50;;;;;;4992494;28;20510;-55
2022/07/28 04:27:48;;;;;;;1.60;0.60;;;24.30;38.10;;;;;;4989772;28;20418;-55
2022/07/28 04:30:19;;;;;;;1.45;0.50;;;24.20;37.50;;;;;;4982583;28;20031;-55
2022/07/28 04:32:48;;;;;;;1.75;0.47;;;24.20;37.50;;;;;;4990560;28;20105;-49
2022/07/28 04:35:16;;;;;;;1.50;0.50;;;24.20;37.50;;;;;;4992340;28;20037;-55
2022/07/28 04:37:43;;;;;;;0.98;0.40;;;24.20;37.50;;;;;;4993303;28;20041;-57
2022/07/28 04:40:11;;;;;;;1.60;0.45;;;24.20;37.50;;;;;;4990228;28;20106;-51
2022/07/28 04:42:37;;;;;;;1.35;0.50;;;24.20;37.50;;;;;;4992649;28;20092;-56
2022/07/28 04:45:07;;;;;;;2.70;0.40;;;24.20;37.50;;;;;;4991292;28;20030;-55
2022/07/28 04:47:34;;;;;;;1.88;0.60;;;24.20;37.60;;;;;;4993094;28;20026;-50
2022/07/28 04:50:00;;;;;;;1.63;0.43;;;24.20;37.60;;;;;;4992300;28;20053;-54
2022/07/28 04:52:25;;;;;;;2.63;0.75;;;24.20;37.60;;;;;;4994330;28;20041;-54
2022/07/28 04:54:52;;;;;;;1.00;0.40;;;24.10;37.60;;;;;;5003809;28;20045;-54
2022/07/28 04:57:19;;;;;;;0.90;0.40;;;24.10;37.60;;;;;;5012067;28;20083;-49
2022/07/28 04:59:45;;;;;;;2.83;0.80;;;24.10;37.60;;;;;;5010559;28;20037;-51
2022/07/28 05:02:11;;;;;;;1.42;0.50;;;24.10;37.70;;;;;;5011634;28;20048;-55
2022/07/28 05:04:38;;;;;;;0.90;0.30;;;24.10;37.70;;;;;;5011819;28;20120;-54
2022/07/28 05:07:04;;;;;;;1.35;0.60;;;24.10;37.70;;;;;;5009806;28;20167;-56
2022/07/28 05:09:31;;;;;;;3.22;0.50;;;24.10;37.90;;;;;;5011401;28;20026;-55
2022/07/28 05:11:57;;;;;;;1.35;0.70;;;24.10;37.80;;;;;;5011094;28;20030;-52
2022/07/28 05:14:23;;;;;;;4.25;0.40;;;24.10;37.80;;;;;;5011515;28;20112;-54
2022/07/28 05:16:48;;;;;;;2.60;0.47;;;24.10;37.80;;;;;;5012219;28;20033;-54
2022/07/28 05:19:14;;;;;;;0.85;0.30;;;24.10;37.80;;;;;;5012497;28;20057;-50
2022/07/28 05:21:40;;;;;;;1.27;0.35;;;24.10;37.80;;;;;;5011701;28;20500;-53
2022/07/28 05:24:06;;;;;;;1.42;0.43;;;24.10;37.90;;;;;;5011412;28;20115;-54
2022/07/28 05:26:32;;;;;;;0.88;0.50;;;24.10;37.90;;;;;;5010048;28;20453;-60
2022/07/28 05:28:58;;;;;;;1.75;0.60;;;24.10;37.90;;;;;;5011997;28;20022;-53
2022/07/28 05:31:24;;;;;;;1.98;0.52;;;24.10;37.90;;;;;;5011285;28;20029;-54
2022/07/28 05:33:50;;;;;;;2.42;0.75;;;24.10;37.90;;;;;;5011156;28;20038;-50
2022/07/28 05:36:16;;;;;;;2.97;0.80;;;24.10;38.00;;;;;;5011248;28;20433;-54
2022/07/28 05:38:43;;;;;;;1.83;0.32;;;24.10;38.00;;;;;;5008280;28;20022;-54
2022/07/28 05:41:08;;;;;;;1.00;0.52;;;24.10;38.00;;;;;;5010731;28;20018;-53
2022/07/28 05:43:36;;;;;;;1.73;0.65;;;24.10;38.00;;;;;;5010807;28;20133;-51
2022/07/28 05:46:03;;;;;;;1.95;0.80;;;24.10;38.00;;;;;;5011268;28;20036;-54
2022/07/28 05:48:29;;;;;;;2.67;1.17;;;24.00;38.00;;;;;;5010426;28;20021;-52
2022/07/28 05:50:55;;;;;;;1.70;0.50;;;24.00;38.00;;;;;;5010873;28;20408;-54
2022/07/28 05:53:21;;;;;;;3.63;0.60;;;24.00;38.00;;;;;;5010626;28;20030;-55
2022/07/28 05:55:47;;;;;;;2.10;0.55;;;24.00;38.00;;;;;;5010157;28;20468;-56
2022/07/28 05:58:13;;;;;;;1.35;0.50;;;24.00;38.10;;;;;;5006676;28;20524;-52
2022/07/28 06:00:39;;;;;;;2.28;0.77;;;24.00;38.10;;;;;;5011937;28;20101;-53
2022/07/28 06:03:06;;;;;;;1.65;0.52;;;24.00;38.20;;;;;;5010596;28;20045;-57
2022/07/28 06:05:32;;;;;;;3.13;0.60;;;24.00;38.20;;;;;;5010671;28;20540;-55
2022/07/28 06:07:59;;;;;;;1.35;0.63;;;24.00;38.30;;;;;;5008207;28;20948;-53
2022/07/28 06:10:57;;;;;;;0.93;0.52;;;24.00;38.30;;;;;;5010386;28;20041;-52
2022/07/28 06:13:14;;;;;;;2.88;0.50;;;24.00;38.30;;;;;;5014848;28;20342;-53
2022/07/28 06:15:40;;;;;;;1.52;0.50;;;24.00;38.40;;;;;;5015475;28;20042;-48
2022/07/28 06:18:06;;;;;;;2.72;0.50;;;24.00;38.40;;;;;;5015794;28;20044;-51
2022/07/28 06:20:32;;;;;;;9.55;1.63;;;24.00;38.40;;;;;;5015094;28;20033;-54
2022/07/28 06:22:58;;;;;;;1.52;0.40;;;24.00;38.40;;;;;;5013627;28;20034;-55
2022/07/28 06:25:25;;;;;;;1.20;0.60;;;24.00;38.40;;;;;;5008701;28;20021;-55
2022/07/28 06:27:54;;;;;;;2.88;0.77;;;24.00;38.50;;;;;;5011196;28;20026;-54
2022/07/28 06:30:20;;;;;;;2.85;0.70;;;24.00;38.50;;;;;;5015216;28;20041;-54
2022/07/28 06:32:47;;;;;;;1.58;0.75;;;24.00;38.50;;;;;;5015687;28;20049;-56
2022/07/28 06:35:15;;;;;;;3.05;0.82;;;24.00;38.50;;;;;;5013670;28;20026;-55
2022/07/28 06:37:42;;;;;;;1.52;0.70;;;24.00;38.50;;;;;;5010961;28;20040;-55
2022/07/28 06:40:10;;;;;;;1.13;0.60;;;24.00;38.50;;;;;;5010131;28;20025;-57
2022/07/28 06:42:36;;;;;;;2.55;0.88;;;24.00;38.60;;;;;;5024277;28;20081;-52
2022/07/28 06:45:03;;;;;;;2.67;0.70;;;23.90;38.60;;;;;;5014468;28;20037;-56
2022/07/28 06:47:29;;;;;;;1.38;0.63;;;24.00;38.70;;;;;;5013236;28;20448;-56
2022/07/28 06:49:55;;;;;;;2.08;0.70;;;24.00;38.70;;;;;;5015327;28;20037;-52
2022/07/28 06:52:21;;;;;;;2.30;0.70;;;24.00;38.70;;;;;;5014710;28;20801;-52
2022/07/28 06:54:51;;;;;;;1.25;0.50;;;24.00;38.70;;;;;;5012011;28;20042;-53
2022/07/28 06:57:19;;;;;;;1.63;0.70;;;24.10;38.70;;;;;;5012501;28;20105;-54
2022/07/28 06:59:45;;;;;;;1.55;0.60;;;24.10;38.70;;;;;;5013947;28;20042;-54
2022/07/28 07:02:15;;;;;;;1.63;0.60;;;24.10;38.60;;;;;;5013579;28;20033;-53
2022/07/28 07:04:41;;;;;;;2.35;0.50;;;24.10;38.60;;;;;;5007624;28;20034;-51
2022/07/28 07:07:08;;;;;;;1.85;0.57;;;24.20;38.60;;;;;;5009109;28;20041;-49
2022/07/28 07:09:34;;;;;;;1.45;0.50;;;24.20;38.50;;;;;;5010112;28;20104;-55
2022/07/28 07:12:01;;;;;;;1.52;0.40;;;24.10;38.40;;;;;;5014395;28;20358;-54
2022/07/28 07:14:27;;;;;;;1.67;0.55;;;24.20;38.40;;;;;;4995113;28;20053;-55
2022/07/28 07:16:53;;;;;;;1.85;0.38;;;24.20;38.40;;;;;;5010480;28;20033;-51
2022/07/28 07:19:20;;;;;;;0.90;0.35;;;24.20;38.30;;;;;;5015275;28;20511;-50
2022/07/28 07:21:48;;;;;;;0.45;0.35;;;24.20;38.30;;;;;;5014367;28;20030;-56
2022/07/28 07:24:14;;;;;;;1.27;0.50;;;24.20;38.20;;;;;;5017892;28;20105;-51
2022/07/28 07:26:40;;;;;;;1.77;0.45;;;24.30;38.20;;;;;;5017551;28;20122;-54
2022/07/28 07:29:06;;;;;;;0.73;0.30;;;24.30;38.20;;;;;;5018972;28;20034;-52
2022/07/28 07:31:36;;;;;;;1.05;0.40;;;24.30;38.10;;;;;;5017416;28;20056;-55
2022/07/28 07:34:02;;;;;;;0.93;0.40;;;24.30;38.00;;;;;;5018422;28;20030;-56
2022/07/28 07:36:28;;;;;;;0.90;0.40;;;24.30;38.00;;;;;;5018596;28;20073;-52
2022/07/28 07:38:53;;;;;;;1.05;0.40;;;24.40;38.00;;;;;;5015320;28;20081;-53
2022/07/28 07:41:19;;;;;;;1.20;0.40;;;24.30;37.90;;;;;;5018382;28;20484;-56
2022/07/28 07:43:46;;;;;;;1.15;0.47;;;24.40;37.90;;;;;;5017394;28;20052;-56
2022/07/28 07:46:12;;;;;;;0.57;0.30;;;24.40;37.90;;;;;;5017532;28;20360;-52
2022/07/28 07:48:38;;;;;;;0.63;0.30;;;24.40;37.90;;;;;;5016723;28;20045;-56
2022/07/28 07:51:05;;;;;;;0.65;0.40;;;24.40;37.80;;;;;;5016137;28;20022;-57
2022/07/28 07:53:31;;;;;;;0.85;0.50;;;24.40;37.70;;;;;;5016711;28;20058;-55
2022/07/28 07:55:57;;;;;;;0.70;0.40;;;24.40;37.70;;;;;;5007795;28;20140;-54
2022/07/28 07:58:22;;;;;;;1.38;0.20;;;24.40;37.50;;;;;;5002947;28;20041;-50
2022/07/28 08:00:48;;;;;;;1.13;0.20;;;24.40;37.50;;;;;;5018365;28;20030;-54
2022/07/28 08:03:15;;;;;;;0.35;0.20;;;24.40;37.40;;;;;;5018028;28;20034;-54
2022/07/28 08:05:41;;;;;;;0.50;0.40;;;24.50;37.40;;;;;;5016869;28;20509;-50
2022/07/28 08:08:07;;;;;;;0.80;0.40;;;24.50;37.40;;;;;;5016919;28;20025;-53
2022/07/28 08:10:34;;;;;;;0.50;0.30;;;24.50;37.30;;;;;;5016744;28;20441;-52
2022/07/28 08:13:00;;;;;;;1.25;0.25;;;24.50;37.20;;;;;;5018139;28;20099;-52
2022/07/28 08:15:26;;;;;;;1.38;0.40;;;24.50;37.20;;;;;;5017574;28;20437;-52
2022/07/28 08:17:52;;;;;;;0.30;0.28;;;24.50;37.10;;;;;;5000409;28;20061;-51
2022/07/28 08:20:18;;;;;;;1.13;0.30;;;24.60;37.10;;;;;;5016959;28;20029;-52
2022/07/28 08:22:52;;;;;;;0.68;0.25;;;24.60;37.10;;;;;;5016272;28;20073;-52
2022/07/28 08:25:18;;;;;;;;;;;24.60;37.00;;;;;;5018275;28;20034;-53
2022/07/28 08:27:44;;;;;;;0.30;0.22;;;24.60;36.90;;;;;;5017622;28;20321;-49
2022/07/28 08:30:11;;;;;;;0.85;0.40;;;24.60;36.90;;;;;;5016628;28;20084;-51
2022/07/28 08:32:37;;;;;;;1.15;0.40;;;24.60;36.90;;;;;;5017818;28;20037;-53
2022/07/28 08:35:04;;;;;;;0.43;0.28;;;24.60;36.80;;;;;;5016335;28;20419;-57
2022/07/28 08:37:30;;;;;;;0.60;0.30;;;24.60;36.80;;;;;;5016393;28;20029;-55
2022/07/28 08:39:55;;;;;;;0.88;0.38;;;24.60;36.80;;;;;;5016144;28;20404;-53
2022/07/28 08:42:37;;;;;;;0.75;0.30;;;24.60;36.70;;;;;;5017566;28;20045;-50
2022/07/28 08:45:06;;;;;;;0.38;0.25;;;24.60;36.60;;;;;;5018015;28;20042;-52
2022/07/28 08:47:35;;;;;;;1.00;0.35;;;24.60;36.60;;;;;;5016534;28;20034;-54
2022/07/28 08:50:01;;;;;;;0.57;0.30;;;24.70;36.60;;;;;;5017309;28;20041;-54
2022/07/28 08:52:29;;;;;;;0.63;0.30;;;24.60;36.50;;;;;;5015784;28;20467;-53
2022/07/28 08:54:57;;;;;;;0.40;0.20;;;24.70;36.50;;;;;;5015461;28;20045;-52
2022/07/28 08:57:33;;;;;;;0.95;0.40;;;24.70;36.40;;;;;;5017081;28;20041;-56
2022/07/28 08:59:59;;;;;;;1.20;0.40;;;24.70;36.40;;;;;;5016954;28;20044;-56
2022/07/28 09:02:27;;;;;;;0.82;0.30;;;24.70;36.40;;;;;;5017020;28;20099;-51
2022/07/28 09:04:59;;;;;;;1.38;0.52;;;24.70;36.40;;;;;;5016522;28;20037;-54
2022/07/28 09:07:26;;;;;;;0.75;0.30;;;24.70;36.30;;;;;;5016157;28;20109;-51
2022/07/28 09:09:52;;;;;;;0.77;0.50;;;24.70;36.20;;;;;;5012643;28;20108;-52
2022/07/28 09:12:18;;;;;;;0.68;0.30;;;24.70;36.20;;;;;;5013257;28;20045;-54
2022/07/28 09:14:44;;;;;;;0.88;0.35;;;24.80;36.30;;;;;;5001352;28;20025;-55
2022/07/28 09:17:10;;;;;;;0.70;0.30;;;24.70;36.20;;;;;;5015898;28;20528;-56
2022/07/28 09:19:39;;;;;;;2.47;0.32;;;24.80;36.20;;;;;;5015985;28;20026;-55
2022/07/28 09:22:06;;;;;;;0.40;0.28;;;24.80;36.10;;;;;;5013167;28;20396;-56
2022/07/28 09:24:40;;;;;;;0.45;0.25;;;24.80;36.10;;;;;;5013868;28;20116;-54
2022/07/28 09:27:10;;;;;;;0.70;0.22;;;24.80;36.00;;;;;;5014459;28;20465;-57
2022/07/28 09:29:38;;;;;;;0.30;0.20;;;24.80;36.00;;;;;;5014282;28;20034;-51
2022/07/28 09:32:05;;;;;;;0.85;0.30;;;24.80;35.90;;;;;;5011443;28;20045;-55
2022/07/28 09:34:45;;;;;;;0.68;0.20;;;24.80;35.90;;;;;;5016446;28;20034;-53
2022/07/28 09:37:22;;;;;;;0.30;0.20;;;24.80;35.80;;;;;;5015123;28;20042;-54
2022/07/28 09:39:50;;;;;;;0.52;0.22;;;24.80;35.70;;;;;;5014780;28;20029;-52
2022/07/28 09:42:17;;;;;;;0.45;0.30;;;24.80;35.70;;;;;;5015823;28;20038;-55
2022/07/28 09:44:44;;;;;;;1.60;0.40;;;24.80;35.70;;;;;;5013110;28;20428;-54
2022/07/28 09:47:25;;;;;;;0.22;0.22;;;24.90;35.70;;;;;;5015496;28;20040;-53
2022/07/28 09:49:51;;;;;;;0.77;0.22;;;24.80;35.70;;;;;;5015099;28;20412;-51
2022/07/28 09:52:30;;;;;;;0.82;0.30;;;24.90;35.70;;;;;;5015874;28;20371;-56
2022/07/28 09:55:08;;;;;;;0.32;0.28;;;24.90;35.60;;;;;;5013882;28;20360;-50
2022/07/28 09:57:35;;;;;;;0.43;0.30;;;24.90;35.50;;;;;;5015684;28;20365;-51
2022/07/28 10:00:08;;;;;;;1.05;0.40;;;24.90;35.50;;;;;;5015781;28;20108;-52
2022/07/28 10:02:38;;;;;;;0.35;0.30;;;24.90;36.20;;;;;;5013815;28;20051;-52
2022/07/28 10:05:05;;;;;;;0.30;0.28;;;24.90;35.50;;;;;;5015275;28;20032;-55
2022/07/28 10:07:31;;;;;;;0.57;0.30;;;24.90;35.50;;;;;;5015031;28;20030;-52
2022/07/28 10:10:06;;;;;;;0.10;0.10;;;24.90;35.50;;;;;;5014073;28;20100;-55
2022/07/28 10:12:34;;;;;;;0.63;0.28;;;24.90;35.50;;;;;;5015608;28;20047;-55
2022/07/28 10:17:59;;;;;;;0.57;0.20;;;24.90;35.40;;;;;;5015477;28;20057;-53
2022/07/28 10:20:27;;;;;;;0.47;0.25;;;24.90;35.50;;;;;;5014011;28;20347;-55
2022/07/28 10:23:04;;;;;;;2.90;0.40;;;25.00;35.60;;;;;;5014725;28;20037;-54
2022/07/28 10:25:32;;;;;;;0.65;0.30;;;25.00;35.60;;;;;;5009897;28;20044;-55
2022/07/28 10:27:59;;;;;;;0.40;0.30;;;25.00;35.70;;;;;;5010739;28;20092;-54
2022/07/28 10:30:33;;;;;;;0.65;0.30;;;25.00;35.80;;;;;;5012754;28;20048;-52
2022/07/28 10:33:04;;;;;;;0.75;0.30;;;25.00;35.80;;;;;;5008992;28;20145;-55
2022/07/28 10:35:32;;;;;;;0.70;0.55;;;25.00;35.90;;;;;;5013363;28;20049;-50
2022/07/28 10:38:02;;;;;;;2.47;0.30;;;25.10;36.00;;;;;;5013018;28;20030;-54
2022/07/28 10:40:34;;;;;;;3.28;0.30;;;25.10;36.10;;;;;;5013709;28;20463;-59
2022/07/28 10:43:00;;;;;;;0.95;0.55;;;25.10;36.10;;;;;;5014522;28;20065;-51
2022/07/28 10:45:26;;;;;;;0.80;0.30;;;25.10;36.20;;;;;;5014888;28;20065;-53
2022/07/28 10:47:53;;;;;;;0.60;0.25;;;25.10;36.20;;;;;;5012024;28;20449;-57
2022/07/28 10:50:20;;;;;;;1.15;0.50;;;25.10;36.20;;;;;;5014961;28;20042;-54
2022/07/28 10:52:47;;;;;;;1.20;0.38;;;25.20;36.30;;;;;;5011775;28;20030;-58
2022/07/28 10:55:31;;;;;;;0.50;0.30;;;25.20;36.30;;;;;;5009234;28;20061;-62
2022/07/28 10:58:07;;;;;;;0.52;0.20;;;25.20;36.20;;;;;;5014874;28;20127;-61
2022/07/28 11:00:39;;;;;;;1.13;0.38;;;25.30;36.40;;;;;;5017609;28;20026;-62
2022/07/28 11:03:07;;;;;;;1.20;0.32;;;25.30;36.40;;;;;;4999638;28;20038;-61
2022/07/28 11:05:39;;;;;;;0.40;0.20;;;25.30;36.50;;;;;;5014103;28;20076;-60
2022/07/28 11:08:08;;;;;;;0.52;0.20;;;25.40;36.60;;;;;;5017476;28;20429;-59
2022/07/28 11:10:44;;;;;;;0.80;0.40;;;25.50;36.50;;;;;;5017992;28;20409;-61
2022/07/28 11:13:31;;;;;;;2.17;0.30;;;25.60;36.50;;;;;;5011650;28;20435;-61
2022/07/28 11:16:13;;;;;;;0.43;0.20;;;25.70;36.40;;;;;;5012209;28;20107;-61
2022/07/28 11:19:06;;;;;;;0.52;0.20;;;25.80;36.30;;;;;;5009971;28;20034;-55
2022/07/28 11:21:34;;;;;;;0.40;0.20;;;25.90;36.10;;;;;;5015691;28;20060;-57
2022/07/28 11:24:00;;;;;;;0.45;0.30;;;26.10;36.10;;;;;;5018091;28;20469;-58
2022/07/28 11:26:33;;;;;;;0.25;0.25;;;26.20;36.00;;;;;;5018259;28;20034;-55
2022/07/28 11:28:59;;;;;;;0.47;0.20;;;26.30;36.50;;;;;;5017168;28;20042;-57
2022/07/28 11:31:43;;;;;;;0.32;0.20;;;26.30;35.60;;;;;;5016923;28;20033;-58
2022/07/28 11:34:21;;;;;;;0.85;0.30;;;26.40;35.50;;;;;;5017429;28;20030;-59
2022/07/28 11:37:11;;;;;;;0.55;0.22;;;26.60;35.40;;;;;;5012986;28;20029;-61
2022/07/28 11:39:41;;;;;;;0.45;0.22;;;26.60;35.30;;;;;;5013965;28;20045;-61
2022/07/28 11:42:28;;;;;;;0.35;0.22;;;26.70;35.20;;;;;;5017274;28;20034;-61
2022/07/28 11:44:55;;;;;;;0.90;0.30;;;26.80;35.10;;;;;;5016775;28;20033;-62
2022/07/28 11:47:23;;;;;;;0.45;0.30;;;26.80;35.50;;;;;;5015009;28;20046;-59
2022/07/28 11:50:14;;;;;;;1.17;0.20;;;26.90;35.00;;;;;;5010957;28;20373;-58
2022/07/28 11:53:06;;;;;;;0.35;0.30;;;27.00;34.90;;;;;;5013050;28;20025;-60
2022/07/28 11:55:32;;;;;;;1.25;0.30;;;27.00;34.80;;;;;;5008023;28;20461;-58
2022/07/28 11:58:05;;;;;;;0.43;0.20;;;27.10;34.80;;;;;;5012601;28;20457;-60
2022/07/28 12:00:31;;;;;;;0.38;0.25;;;27.10;34.70;;;;;;5011032;28;20025;-61
2022/07/28 12:02:59;;;;;;;0.68;0.30;;;27.20;34.60;;;;;;5013095;28;20087;-60
2022/07/28 12:05:25;;;;;;;0.95;0.20;;;27.20;34.60;;;;;;5011130;28;20105;-61
2022/07/28 12:07:51;;;;;;;1.75;0.30;;;27.20;34.60;;;;;;5014944;28;20177;-62
2022/07/28 12:10:34;;;;;;;0.80;0.30;;;27.30;34.70;;;;;;5013993;28;20040;-59
2022/07/28 12:13:06;;;;;;;0.20;0.20;;;27.30;34.70;;;;;;5011036;28;20037;-60
2022/07/28 12:15:33;;;;;;;1.98;0.38;;;27.30;34.70;;;;;;5009299;28;20034;-59
2022/07/28 12:17:59;;;;;;;0.47;0.20;;;27.40;34.70;;;;;;5012557;28;20022;-59
2022/07/28 12:20:33;;;;;;;0.50;0.20;;;27.40;34.70;;;;;;5008778;28;20018;-62
2022/07/28 12:23:08;;;;;;;0.82;0.32;;;27.40;34.70;;;;;;5007172;28;20068;-62
2022/07/28 12:25:45;;;;;;;0.47;0.30;;;27.50;34.60;;;;;;5007922;28;20072;-62
2022/07/28 12:28:19;;;;;;;2.80;0.70;;;27.40;34.50;;;;;;5008912;28;20018;-61
2022/07/28 12:30:48;;;;;;;1.17;0.50;;;27.50;34.60;;;;;;5009278;28;20026;-61
2022/07/28 12:33:40;;;;;;;0.75;0.28;;;27.50;34.70;;;;;;5007305;28;20428;-62
2022/07/28 12:36:07;;;;;;;0.40;0.40;;;27.50;34.60;;;;;;5006281;28;20045;-61
2022/07/28 12:38:34;;;;;;;1.17;0.30;;;27.50;34.60;;;;;;5008907;28;20048;-62
2022/07/28 12:41:00;;;;;;;0.55;0.20;;;27.60;34.50;;;;;;5008357;28;20034;-60
2022/07/28 12:43:29;;;;;;;0.80;0.22;;;27.60;34.50;;;;;;5009022;28;21364;-58
2022/07/28 12:45:55;;;;;;;0.57;0.30;;;27.60;34.60;;;;;;5006439;28;20034;-62
2022/07/28 12:48:22;;;;;;;1.17;0.30;;;27.60;34.60;;;;;;5007832;28;20037;-62
2022/07/28 12:50:51;;;;;;;0.70;0.40;;;27.60;34.50;;;;;;5007040;28;20124;-63
2022/07/28 12:53:20;;;;;;;0.45;0.28;;;27.70;34.50;;;;;;5009511;28;20041;-60
2022/07/28 12:55:46;;;;;;;0.98;0.30;;;27.70;34.30;;;;;;5007143;28;20069;-62
2022/07/28 12:58:24;;;;;;;1.50;0.32;;;27.70;34.40;;;;;;5014773;28;20037;-60
2022/07/28 13:00:51;;;;;;;0.73;0.40;;;27.70;34.50;;;;;;5008083;28;20046;-60